Lebanon, New Hampshire
Current Conditions -  °F | °C
As of 12:53 PM on Monday 26 Jan 2015 (Local Time) from KLEB Reporting Station
Scattered Clouds Scattered Clouds  
Wind Chill: -14°   Ceiling: Unl
Heat Index: -10°   Visibility: 10mi
Dew Point: -19°   Wind: 5mph
Humidity: 49%   Direction: 320°NW
Pressure: 30.08"   Gusts: NA
Location:  43.64°N, 72.25°W
Report Text: KLEB 261753Z 32004KT 10SM SCT065 M10/M19 A3008 RMK AO2 SLP207 T11001189 11094 21178 58025
Loading
Personal Weather Stations






























Interactive Weather Map New forecast layout! Learn more

10-Day Weather Forecast

Advertisements
Track Severe Weather on mobile